Time;durP1;ratioP1;P1;durP2;ratioP2;P2;SDS_P1;SDS_P2;PMS_P1;PMS_P2;Temp;Humidity;BMP_temperature;BMP_pressure;BME280_temperature;BME280_humidity;BME280_pressure;Samples;Min_cycle;Max_cycle;Signal;HPM_P1;HPM_P2
2023/07/10 06:42:17;;;;;;;2.50;2.10;;;;;;;35.23;31.79;100443.27;107048;1255;65964;-92
2023/07/10 06:45:07;;;;;;;5.00;2.30;;;;;;;35.44;31.50;100441.33;106178;1256;61355;-91
2023/07/10 06:47:56;;;;;;;3.10;2.20;;;;;;;35.33;31.81;100438.58;106732;1256;62819;-92
2023/07/10 06:50:49;;;;;;;3.30;2.00;;;;;;;35.36;31.70;100437.61;106287;1255;61345;-93
2023/07/10 06:53:38;;;;;;;2.30;1.90;;;;;;;35.41;30.81;100441.58;106443;1260;61184;-93
2023/07/10 06:56:26;;;;;;;2.90;2.30;;;;;;;35.52;30.60;100436.21;106650;1256;65640;-92
2023/07/10 06:59:16;;;;;;;2.50;2.10;;;;;;;35.44;30.53;100430.46;106523;1260;61453;-91
2023/07/10 07:02:05;;;;;;;2.60;2.00;;;;;;;35.39;30.87;100425.16;106552;1256;63868;-92
2023/07/10 07:04:55;;;;;;;4.20;2.00;;;;;;;35.56;31.20;100423.70;106548;1255;61257;-92
2023/07/10 07:07:45;;;;;;;2.20;1.70;;;;;;;35.62;30.85;100415.09;106624;1256;61201;-92
2023/07/10 07:10:42;;;;;;;4.30;2.10;;;;;;;35.68;31.32;100411.82;106669;1256;64607;-93
2023/07/10 07:13:31;;;;;;;2.70;1.90;;;;;;;35.82;31.28;100412.92;106507;1256;61845;-93
2023/07/10 07:16:21;;;;;;;2.60;1.90;;;;;;;36.03;30.25;100412.56;106079;1256;62859;-92
2023/07/10 07:19:10;;;;;;;3.80;2.20;;;;;;;36.24;29.63;100409.88;106455;1256;61118;-92
2023/07/10 07:22:05;;;;;;;2.60;2.20;;;;;;;36.36;29.16;100409.88;106742;1255;59996;-93
2023/07/10 07:25:14;;;;;;;3.40;2.10;;;;;;;36.36;28.92;100408.64;106860;1256;66621;-92
2023/07/10 07:28:03;;;;;;;3.20;1.80;;;;;;;36.35;28.53;100408.66;106430;1255;61037;-93
2023/07/10 07:30:52;;;;;;;3.10;2.20;;;;;;;36.25;28.44;100408.45;106194;1256;64561;-93
2023/07/10 07:33:42;;;;;;;3.70;2.40;;;;;;;36.33;28.28;100403.96;106486;1256;61418;-93
2023/07/10 07:36:34;;;;;;;2.90;1.90;;;;;;;36.29;28.94;100399.95;106092;1255;61250;-93
2023/07/10 07:39:30;;;;;;;4.50;2.10;;;;;;;36.30;28.87;100402.45;106179;1262;66155;-92
2023/07/10 07:42:19;;;;;;;2.30;2.00;;;;;;;36.31;29.21;100400.69;106546;1256;61353;-93
2023/07/10 07:45:08;;;;;;;2.90;1.70;;;;;;;36.38;29.31;100400.28;106528;1256;64105;-90
2023/07/10 07:47:57;;;;;;;5.50;1.90;;;;;;;36.52;29.08;100405.33;106551;1258;61266;-94
2023/07/10 07:51:06;;;;;;;3.10;1.70;;;;;;;36.68;28.57;100405.42;106504;1255;59240;-93
2023/07/10 07:54:02;;;;;;;;;;;;;;;36.93;27.37;100404.45;106461;1256;66885;-91
2023/07/10 07:56:51;;;;;;;2.00;1.80;;;;;;;36.97;26.81;100399.45;107015;1256;60847;-95
2023/07/10 07:59:44;;;;;;;2.20;1.90;;;;;;;37.02;27.72;100396.80;106683;1256;64044;-93
2023/07/10 08:02:34;;;;;;;2.60;1.80;;;;;;;37.12;26.57;100392.79;106421;1256;61315;-92
2023/07/10 08:05:23;;;;;;;2.70;1.80;;;;;;;37.06;25.87;100386.19;106165;1260;61315;-92
2023/07/10 08:08:25;;;;;;;1.70;1.50;;;;;;;37.08;26.98;100384.23;106205;1256;66837;-92
2023/07/10 08:11:15;;;;;;;2.30;1.70;;;;;;;37.05;26.67;100379.80;106351;1256;61158;-93
2023/07/10 08:14:04;;;;;;;3.30;1.80;;;;;;;37.11;26.36;100379.50;106278;1256;64970;-93
2023/07/10 08:16:54;;;;;;;5.50;1.90;;;;;;;37.12;25.60;100376.29;106331;1255;59361;-92
2023/07/10 08:19:42;;;;;;;5.20;1.20;;;;;;;36.98;25.71;100375.38;106150;1256;61228;-93
2023/07/10 08:22:31;;;;;;;3.10;1.80;;;;;;;37.09;25.86;100374.73;106166;1256;67072;-93
2023/07/10 08:25:19;;;;;;;4.00;2.30;;;;;;;37.10;25.28;100378.80;106296;1259;61952;-92
2023/07/10 08:28:08;;;;;;;2.00;1.70;;;;;;;37.04;24.98;100375.59;106573;1255;64068;-92
2023/07/10 08:30:57;;;;;;;2.20;1.30;;;;;;;36.90;24.85;100377.31;106235;1257;61246;-93
2023/07/10 08:33:46;;;;;;;2.20;2.00;;;;;;;36.72;25.27;100377.48;106180;1257;61217;-93
2023/07/10 08:36:35;;;;;;;2.10;1.70;;;;;;;36.74;25.56;100376.51;106214;1256;67219;-90
2023/07/10 08:39:24;;;;;;;3.40;2.10;;;;;;;36.89;26.03;100370.80;106064;1256;61249;-91
2023/07/10 08:42:18;;;;;;;5.00;2.60;;;;;;;37.10;26.40;100371.38;106329;1255;63989;-91
2023/07/10 08:45:20;;;;;;;2.50;1.70;;;;;;;37.15;26.53;100370.86;106284;1260;61262;-92
2023/07/10 08:48:30;;;;;;;6.30;1.80;;;;;;;37.10;27.04;100365.27;106293;1256;60099;-92
2023/07/10 08:51:21;;;;;;;7.00;1.60;;;;;;;37.25;27.15;100362.79;106075;1255;66860;-92
2023/07/10 08:54:12;;;;;;;3.20;1.60;;;;;;;37.45;26.28;100361.98;106317;1256;59980;-93
2023/07/10 08:57:18;;;;;;;2.70;2.00;;;;;;;37.60;26.56;100359.84;106162;1258;63713;-92
2023/07/10 09:00:09;;;;;;;4.90;2.00;;;;;;;37.73;26.32;100357.39;106440;1260;61439;-93
2023/07/10 09:03:05;;;;;;;2.60;1.90;;;;;;;37.61;25.73;100359.41;106150;1256;61205;-94
2023/07/10 09:05:53;;;;;;;3.50;1.90;;;;;;;37.50;26.56;100357.00;106217;1256;64933;-93
2023/07/10 09:08:42;;;;;;;2.20;1.80;;;;;;;37.62;26.74;100358.80;106150;1260;61387;-94
2023/07/10 09:11:32;;;;;;;2.20;1.90;;;;;;;37.85;26.29;100358.41;106437;1260;64829;-94
2023/07/10 09:14:38;;;;;;;4.00;2.10;;;;;;;38.11;25.50;100355.27;106264;1256;61354;-92
2023/07/10 09:17:45;;;;;;;3.00;2.20;;;;;;;38.16;24.74;100356.35;106155;1256;61240;-93
2023/07/10 09:20:35;;;;;;;7.40;1.90;;;;;;;38.01;25.58;100352.49;106355;1255;65749;-93
2023/07/10 09:23:31;;;;;;;2.70;2.20;;;;;;;37.91;25.95;100346.81;106103;1256;61180;-93
2023/07/10 09:26:21;;;;;;;5.40;2.50;;;;;;;37.87;26.85;100348.66;106366;1256;64662;-92
2023/07/10 09:29:09;;;;;;;3.10;2.10;;;;;;;37.76;27.11;100351.23;106192;1256;61248;-92
2023/07/10 09:32:01;;;;;;;3.70;2.20;;;;;;;37.86;26.62;100349.55;106273;1256;61207;-93
2023/07/10 09:34:54;;;;;;;2.30;1.90;;;;;;;37.91;26.39;100348.69;106199;1256;67008;-92
2023/07/10 09:37:42;;;;;;;2.50;2.30;;;;;;;37.98;26.41;100347.98;106444;1255;62142;-93
2023/07/10 09:40:39;;;;;;;2.40;2.00;;;;;;;38.00;26.58;100347.23;106087;1256;64926;-91
2023/07/10 09:43:30;;;;;;;2.30;1.70;;;;;;;37.98;25.90;100343.48;106505;1255;61247;-93
2023/07/10 09:46:23;;;;;;;2.50;2.30;;;;;;;38.03;25.84;100336.63;106197;1260;60361;-93
2023/07/10 09:49:16;;;;;;;4.20;2.10;;;;;;;38.22;25.67;100345.17;106544;1260;66028;-93
2023/07/10 09:52:25;;;;;;;2.90;2.30;;;;;;;38.26;24.87;100348.58;106214;1256;62653;-93
2023/07/10 09:55:15;;;;;;;4.00;2.40;;;;;;;38.23;24.62;100349.36;106203;1260;64050;-94
2023/07/10 09:58:03;;;;;;;4.20;2.00;;;;;;;38.25;24.71;100347.80;106609;1256;61109;-93
2023/07/10 10:01:00;;;;;;;2.80;2.40;;;;;;;38.36;25.10;100343.51;106847;1256;61316;-93
2023/07/10 10:03:51;;;;;;;2.40;2.20;;;;;;;38.44;25.69;100346.27;106811;1255;65804;-93
2023/07/10 10:06:41;;;;;;;4.20;2.70;;;;;;;38.18;25.73;100344.19;107102;1256;60270;-93
2023/07/10 10:09:33;;;;;;;4.30;2.30;;;;;;;37.72;25.59;100346.59;106620;1256;63971;-95
2023/07/10 10:12:24;;;;;;;3.70;2.20;;;;;;;37.34;26.31;100347.67;106325;1260;61239;-94
2023/07/10 10:15:24;;;;;;;2.80;2.00;;;;;;;37.02;26.29;100352.98;106276;1260;61187;-94
2023/07/10 10:18:18;;;;;;;3.30;2.20;;;;;;;36.52;26.57;100354.22;106188;1256;66029;-93
2023/07/10 10:21:09;;;;;;;5.50;2.50;;;;;;;36.47;27.10;100347.95;106261;1261;61182;-93
2023/07/10 10:24:00;;;;;;;3.90;2.40;;;;;;;36.71;27.44;100348.64;106360;1256;65051;-92
2023/07/10 10:27:29;;;;;;;4.20;2.70;;;;;;;36.91;27.20;100343.03;106509;1260;61369;-93
2023/07/10 10:30:20;;;;;;;3.50;2.30;;;;;;;37.00;26.67;100341.95;106120;1261;61293;-92
2023/07/10 10:33:18;;;;;;;3.50;2.10;;;;;;;37.06;26.41;100339.27;106264;1256;66101;-93
2023/07/10 10:36:30;;;;;;;4.10;2.00;;;;;;;37.07;26.22;100340.83;106427;1256;61231;-93
2023/07/10 10:39:26;;;;;;;2.50;2.30;;;;;;;37.12;25.73;100340.89;106209;1255;65231;-93
2023/07/10 10:42:23;;;;;;;5.30;2.40;;;;;;;37.09;25.99;100346.62;106771;1256;61228;-93
2023/07/10 10:45:34;;;;;;;2.90;2.40;;;;;;;37.12;26.27;100341.14;106609;1256;61220;-94
2023/07/10 10:48:32;;;;;;;3.20;2.30;;;;;;;37.24;26.36;100338.89;106696;1256;67112;-95
2023/07/10 10:51:46;;;;;;;3.10;2.50;;;;;;;37.54;25.91;100334.14;106667;1255;61258;-93
2023/07/10 10:54:48;;;;;;;4.90;2.80;;;;;;;37.94;26.50;100333.08;106305;1256;65113;-93
2023/07/10 10:58:06;;;;;;;4.30;2.20;;;;;;;38.32;26.24;100325.19;106303;1255;61262;-93
2023/07/10 11:01:10;;;;;;;8.70;2.90;;;;;;;38.89;25.75;100329.85;106683;1256;61341;-93
2023/07/10 11:04:03;;;;;;;3.60;2.40;;;;;;;39.28;25.02;100329.09;106317;1256;67100;-93
2023/07/10 11:07:14;;;;;;;3.60;2.60;;;;;;;39.43;25.15;100330.00;106480;1256;61166;-94
2023/07/10 11:10:08;;;;;;;6.90;3.20;;;;;;;39.27;24.58;100333.85;106905;1255;65057;-93
2023/07/10 11:12:59;;;;;;;8.50;3.30;;;;;;;38.83;29.59;100345.86;107207;1256;59913;-94
2023/07/10 11:15:57;;;;;;;6.50;3.20;;;;;;;37.60;33.21;100351.11;106687;1260;59312;-94
2023/07/10 11:18:48;;;;;;;4.20;2.60;;;;;;;36.46;36.05;100350.16;106345;1255;66908;-92
2023/07/10 11:21:38;;;;;;;3.80;2.70;;;;;;;35.71;39.03;100352.85;106557;1260;61205;-93
2023/07/10 11:24:26;;;;;;;5.70;2.30;;;;;;;35.28;41.25;100353.13;106234;1256;62580;-94
2023/07/10 11:27:32;;;;;;;3.70;2.30;;;;;;;34.84;41.72;100352.60;106518;1256;61257;-93
2023/07/10 11:30:30;;;;;;;3.40;2.30;;;;;;;34.35;43.17;100345.56;106055;1261;61181;-93
2023/07/10 11:33:20;;;;;;;3.10;2.40;;;;;;;34.10;44.46;100340.13;106602;1256;67386;-92
2023/07/10 11:36:16;;;;;;;2.90;2.10;;;;;;;34.05;44.62;100338.45;106421;1256;61269;-94
2023/07/10 11:39:11;;;;;;;2.50;1.90;;;;;;;34.14;42.13;100332.98;106425;1256;64962;-91
2023/07/10 11:42:03;;;;;;;2.90;2.00;;;;;;;34.31;37.82;100332.40;106513;1256;61243;-92
2023/07/10 11:44:53;;;;;;;4.70;1.90;;;;;;;34.38;35.88;100327.98;106725;1255;61124;-93
2023/07/10 11:47:43;;;;;;;2.30;1.80;;;;;;;34.41;35.77;100324.19;106324;1256;64596;-93
2023/07/10 11:50:34;;;;;;;4.50;1.60;;;;;;;34.41;35.95;100316.23;106291;1261;61664;-94
2023/07/10 11:53:23;;;;;;;2.00;1.70;;;;;;;34.40;36.29;100313.93;106382;1256;63947;-92
